Weather at Cambridge (Puslinch Lake) Seaplane Base

Public forecast

Using degrees Celsius for public forecast. Weather courtesy of forecast.io.

Closest aviation weather report (METAR) to Cambridge (Puslinch Lake) Seaplane Base

Closest report is Region of Waterloo International Airport, 5.8 nm (10.8 km) WNW.

2024/05/24 00:00 (retrieved 59 minutes ago)

CYKF 240000Z AUTO 29012G17KT 9SM CLR 21/08 A2987 RMK SLP113 DENSITY ALT 2100FT

Closest aviation forecast (TAF) to Cambridge (Puslinch Lake) Seaplane Base

Closest forecast is Region of Waterloo International Airport, 5.8 nm (10.8 km) WNW.

2024/05/23 20:42 (retrieved 4 hours ago)

TAF TAF CYKF 231940Z 2320/2408 25012G22KT P6SM BKN070 BECMG 2400/2402 27006KT FEW070 RMK FCST BASED ON AUTO OBS NXT FCST BY 240200Z